createdAt,value
2022-12-25T00:00:44.040Z,83.83
2022-12-25T00:06:14.457Z,83.72
2022-12-25T00:11:24.876Z,83.68
2022-12-25T00:16:34.560Z,83.61
2022-12-25T00:21:44.078Z,83.88
2022-12-25T00:26:53.826Z,83.86
2022-12-25T00:32:03.641Z,83.85
2022-12-25T00:37:13.181Z,83.91
2022-12-25T00:42:24.158Z,84.03
2022-12-25T00:47:34.899Z,83.90
2022-12-25T00:52:44.572Z,83.93
2022-12-25T00:57:54.495Z,83.88
2022-12-25T01:03:04.116Z,83.93
2022-12-25T01:08:14.072Z,83.90
2022-12-25T01:13:23.871Z,83.85
2022-12-25T01:18:33.521Z,84.03
2022-12-25T01:23:43.712Z,84.09
2022-12-25T01:28:54.428Z,84.04
2022-12-25T01:34:04.089Z,83.86
2022-12-25T01:39:14.058Z,83.93
2022-12-25T01:45:17.954Z,84.06
2022-12-25T01:50:28.925Z,84.09
2022-12-25T01:55:40.010Z,84.14
2022-12-25T02:00:49.791Z,84.11
2022-12-25T02:06:00.515Z,84.21
2022-12-25T02:11:32.259Z,84.00
2022-12-25T02:16:57.292Z,83.82
2022-12-25T02:22:17.850Z,83.77
2022-12-25T02:27:57.650Z,83.79
2022-12-25T02:33:33.589Z,83.93
2022-12-25T02:38:59.964Z,84.05
2022-12-25T02:44:35.308Z,83.89
2022-12-25T02:50:05.656Z,83.81
2022-12-25T02:55:38.870Z,83.81
2022-12-25T03:01:13.637Z,83.97
2022-12-25T03:06:46.972Z,84.15
2022-12-25T03:12:04.120Z,84.22
2022-12-25T03:17:14.013Z,84.32
2022-12-25T03:22:47.035Z,84.27
2022-12-25T03:28:01.096Z,84.05
2022-12-25T03:33:44.407Z,84.01
2022-12-25T03:39:20.437Z,84.05
2022-12-25T03:44:58.274Z,83.94
2022-12-25T03:50:33.720Z,84.06
2022-12-25T03:56:02.525Z,84.18
2022-12-25T04:01:30.794Z,84.15
2022-12-25T04:06:58.185Z,84.19
2022-12-25T04:12:26.195Z,84.12
2022-12-25T04:17:53.565Z,84.10
2022-12-25T04:23:20.944Z,84.23
2022-12-25T04:28:48.111Z,84.29
2022-12-25T04:34:15.509Z,84.28
2022-12-25T04:39:25.379Z,84.27
2022-12-25T04:44:35.206Z,84.07
2022-12-25T04:49:44.803Z,84.17
2022-12-25T04:54:54.531Z,84.08
2022-12-25T05:00:04.361Z,84.14
2022-12-25T05:05:14.429Z,84.33
2022-12-25T05:10:24.602Z,84.35
2022-12-25T05:15:34.350Z,84.50
2022-12-25T05:20:44.194Z,84.44
2022-12-25T05:25:54.033Z,84.55
2022-12-25T05:31:03.827Z,84.44
2022-12-25T05:36:16.237Z,84.38
2022-12-25T05:41:29.095Z,84.44
2022-12-25T05:46:43.861Z,84.44
2022-12-25T05:51:53.723Z,84.51
2022-12-25T05:57:03.442Z,84.47
2022-12-25T06:02:13.204Z,84.43
2022-12-25T06:07:23.046Z,84.29
2022-12-25T06:12:32.603Z,84.35
2022-12-25T06:17:42.293Z,84.40
2022-12-25T06:22:51.989Z,84.50
2022-12-25T06:28:01.945Z,84.64
2022-12-25T06:33:11.561Z,84.57
2022-12-25T06:38:21.199Z,84.55
2022-12-25T06:43:30.736Z,84.60
2022-12-25T06:48:48.260Z,84.52
2022-12-25T06:53:58.921Z,84.60
2022-12-25T06:59:11.770Z,84.69
2022-12-25T07:04:28.410Z,84.72
2022-12-25T07:09:39.430Z,84.73
2022-12-25T07:14:50.353Z,84.77
2022-12-25T07:19:59.989Z,84.72
2022-12-25T07:25:11.247Z,84.86
2022-12-25T07:30:21.408Z,84.80
2022-12-25T07:35:31.075Z,84.72
2022-12-25T07:40:41.414Z,84.63
2022-12-25T07:45:55.319Z,84.56
2022-12-25T07:51:09.556Z,84.34
2022-12-25T07:56:21.791Z,84.37
2022-12-25T08:01:32.190Z,84.36
2022-12-25T08:06:42.043Z,84.48
2022-12-25T08:11:52.114Z,84.51
2022-12-25T08:17:02.166Z,84.57
2022-12-25T08:22:12.186Z,84.58
2022-12-25T08:27:21.733Z,84.50
2022-12-25T08:32:33.255Z,84.32
2022-12-25T08:37:42.987Z,84.29
2022-12-25T08:42:52.840Z,84.18
2022-12-25T08:48:02.993Z,84.04
2022-12-25T08:53:12.834Z,83.99
2022-12-25T08:58:22.462Z,84.03
2022-12-25T09:03:33.606Z,84.00
2022-12-25T09:08:49.044Z,84.06
2022-12-25T09:13:59.681Z,84.04
2022-12-25T09:19:09.778Z,84.22
2022-12-25T09:24:20.908Z,84.29
2022-12-25T09:29:30.592Z,84.26
2022-12-25T09:34:40.277Z,84.20
2022-12-25T09:39:50.104Z,83.99
2022-12-25T09:45:06.139Z,84.21
2022-12-25T09:50:22.047Z,84.04
2022-12-25T09:55:40.338Z,84.14
2022-12-25T10:00:57.954Z,84.07
2022-12-25T10:06:19.125Z,84.31
2022-12-25T10:11:51.303Z,84.29
2022-12-25T10:17:26.455Z,84.41
2022-12-25T10:22:42.491Z,84.47
2022-12-25T10:27:58.712Z,84.26
2022-12-25T10:33:13.582Z,84.39
2022-12-25T10:38:26.567Z,84.36
2022-12-25T10:43:42.644Z,84.12
2022-12-25T10:48:58.068Z,84.10
2022-12-25T10:54:24.169Z,83.96
2022-12-25T10:59:44.459Z,84.17
2022-12-25T11:05:01.706Z,84.43
2022-12-25T11:10:25.250Z,84.46
2022-12-25T11:15:44.627Z,84.38
2022-12-25T11:21:01.275Z,84.13
2022-12-25T11:26:15.464Z,84.07
2022-12-25T11:31:33.323Z,84.11
2022-12-25T11:36:51.183Z,84.08
2022-12-25T11:42:08.166Z,84.18
2022-12-25T11:47:26.358Z,84.21
2022-12-25T11:52:41.433Z,84.04
2022-12-25T11:57:57.039Z,84.06
2022-12-25T12:03:15.321Z,83.85
2022-12-25T12:08:25.095Z,83.70
2022-12-25T12:13:55.738Z,83.71
2022-12-25T12:19:26.185Z,83.97
2022-12-25T12:24:40.745Z,83.89
2022-12-25T12:29:56.315Z,83.95
2022-12-25T12:35:19.703Z,83.92
2022-12-25T12:40:43.927Z,83.90
2022-12-25T12:46:01.829Z,83.93
2022-12-25T12:51:15.149Z,83.88
2022-12-25T12:56:26.154Z,83.68
2022-12-25T13:01:53.539Z,83.82
2022-12-25T13:07:20.996Z,83.85
2022-12-25T13:12:31.731Z,83.79
2022-12-25T13:17:44.587Z,83.45
2022-12-25T13:22:54.414Z,83.33
2022-12-25T13:28:05.145Z,83.57
2022-12-25T13:33:22.587Z,83.50
2022-12-25T13:38:34.435Z,83.50
2022-12-25T13:43:46.518Z,83.47
2022-12-25T13:49:01.831Z,83.58
2022-12-25T13:54:14.448Z,83.66
2022-12-25T13:59:26.989Z,83.54
2022-12-25T14:04:48.467Z,83.58
2022-12-25T14:10:03.932Z,83.69
2022-12-25T14:15:24.024Z,83.49
2022-12-25T14:20:39.307Z,83.38
2022-12-25T14:25:50.315Z,83.56
2022-12-25T14:31:00.922Z,83.62
2022-12-25T14:36:15.048Z,83.57
2022-12-25T14:41:38.282Z,83.39
2022-12-25T14:46:48.087Z,83.58
2022-12-25T14:51:58.874Z,83.86
2022-12-25T14:57:08.843Z,83.70
2022-12-25T15:02:22.372Z,83.85
2022-12-25T15:07:34.928Z,84.14
2022-12-25T15:12:44.502Z,84.25
2022-12-25T15:17:55.870Z,84.40
2022-12-25T15:23:22.571Z,84.63
2022-12-25T15:28:32.179Z,84.68
2022-12-25T15:33:44.241Z,84.69
2022-12-25T15:38:55.228Z,84.91
2022-12-25T15:44:06.168Z,85.06
2022-12-25T15:49:17.148Z,85.26
2022-12-25T15:54:27.035Z,85.32
2022-12-25T16:00:17.058Z,85.46
2022-12-25T16:05:27.945Z,85.52
2022-12-25T16:10:39.132Z,85.39
2022-12-25T16:15:50.507Z,85.36
2022-12-25T16:21:01.641Z,85.22
2022-12-25T16:26:11.560Z,85.36
2022-12-25T16:31:21.172Z,85.38
2022-12-25T16:36:30.836Z,85.37
2022-12-25T16:41:40.592Z,85.33
2022-12-25T16:46:50.894Z,85.75
2022-12-25T16:52:00.610Z,85.72
2022-12-25T16:57:10.426Z,85.82
2022-12-25T17:02:23.248Z,86.02
2022-12-25T17:07:33.168Z,85.77
2022-12-25T17:12:46.031Z,85.90
2022-12-25T17:17:55.958Z,86.04
2022-12-25T17:23:05.822Z,86.10
2022-12-25T17:28:15.698Z,86.11
2022-12-25T17:33:25.647Z,86.04
2022-12-25T17:38:36.116Z,86.25
2022-12-25T17:43:46.024Z,86.41
2022-12-25T17:48:58.556Z,86.57
2022-12-25T17:54:08.206Z,86.65
2022-12-25T17:59:19.420Z,86.64
2022-12-25T18:04:29.246Z,86.82
2022-12-25T18:09:39.560Z,86.65
2022-12-25T18:14:49.095Z,86.56
2022-12-25T18:19:59.696Z,86.75
2022-12-25T18:25:11.008Z,86.89
2022-12-25T18:30:21.470Z,86.89
2022-12-25T18:35:31.388Z,86.70
2022-12-25T18:40:46.492Z,86.63
2022-12-25T18:46:04.003Z,86.61
2022-12-25T18:51:16.852Z,86.57
2022-12-25T18:56:26.540Z,86.73
2022-12-25T19:01:36.520Z,87.08
2022-12-25T19:06:46.702Z,87.08
2022-12-25T19:11:57.260Z,87.08
2022-12-25T19:17:07.103Z,87.16
2022-12-25T19:22:17.055Z,87.18
2022-12-25T19:27:26.739Z,87.06
2022-12-25T19:32:36.371Z,87.13
2022-12-25T19:37:46.001Z,87.25
2022-12-25T19:42:55.497Z,87.82
2022-12-25T19:48:05.569Z,87.77
2022-12-25T19:53:17.239Z,87.78
2022-12-25T19:58:27.776Z,87.62
2022-12-25T20:03:45.896Z,87.85
2022-12-25T20:08:59.270Z,88.00
2022-12-25T20:14:11.933Z,88.25
2022-12-25T20:19:21.590Z,88.22
2022-12-25T20:24:31.205Z,88.20
2022-12-25T20:29:41.056Z,88.33
2022-12-25T20:34:50.957Z,88.37
2022-12-25T20:40:01.308Z,88.30
2022-12-25T20:45:12.806Z,88.28
2022-12-25T20:50:22.839Z,88.14
2022-12-25T20:55:32.559Z,88.01
2022-12-25T21:00:45.897Z,88.02
2022-12-25T21:05:57.901Z,88.07
2022-12-25T21:11:08.757Z,87.93
2022-12-25T21:16:22.965Z,87.90
2022-12-25T21:21:32.898Z,87.89
2022-12-25T21:26:47.842Z,88.08
2022-12-25T21:32:15.804Z,88.27
2022-12-25T21:37:25.534Z,88.17
2022-12-25T21:42:35.169Z,88.11
2022-12-25T21:48:02.046Z,88.03
2022-12-25T21:53:18.643Z,87.93
2022-12-25T21:58:28.337Z,88.06
2022-12-25T22:03:38.324Z,88.20
2022-12-25T22:08:48.078Z,88.37
2022-12-25T22:14:15.552Z,88.14
2022-12-25T22:19:45.429Z,88.14
2022-12-25T22:24:57.073Z,88.14
2022-12-25T22:30:10.490Z,88.21
2022-12-25T22:35:21.110Z,88.21
2022-12-25T22:40:30.905Z,88.25
2022-12-25T22:45:40.373Z,88.14
2022-12-25T22:50:49.901Z,88.17
2022-12-25T22:55:59.741Z,88.22
2022-12-25T23:01:14.222Z,88.26
2022-12-25T23:06:24.198Z,88.24
2022-12-25T23:11:34.106Z,88.31
2022-12-25T23:16:43.877Z,88.42
2022-12-25T23:22:11.112Z,88.39
2022-12-25T23:27:20.892Z,88.38
2022-12-25T23:32:31.103Z,88.47
2022-12-25T23:37:40.860Z,88.73
2022-12-25T23:42:50.462Z,88.74
2022-12-25T23:48:00.085Z,88.72
2022-12-25T23:53:09.618Z,88.75
2022-12-25T23:58:19.390Z,88.89
